sensor_id;sensor_type;location;lat;lon;timestamp;temperature;humidity
22185;DHT22;11258;52.516;13.318;2023-07-20T00:01:15;19.40;99.90
22185;DHT22;11258;52.516;13.318;2023-07-20T00:03:40;19.50;99.90
22185;DHT22;11258;52.516;13.318;2023-07-20T00:06:06;19.50;99.90
22185;DHT22;11258;52.516;13.318;2023-07-20T00:08:32;19.40;99.90
22185;DHT22;11258;52.516;13.318;2023-07-20T00:10:57;19.40;99.90
22185;DHT22;11258;52.516;13.318;2023-07-20T00:13:24;19.30;99.90
22185;DHT22;11258;52.516;13.318;2023-07-20T00:15:50;19.20;99.90
22185;DHT22;11258;52.516;13.318;2023-07-20T00:18:16;19.20;99.90
22185;DHT22;11258;52.516;13.318;2023-07-20T00:20:42;19.10;99.90
22185;DHT22;11258;52.516;13.318;2023-07-20T00:23:07;19.00;99.90
22185;DHT22;11258;52.516;13.318;2023-07-20T00:25:33;19.00;99.90
22185;DHT22;11258;52.516;13.318;2023-07-20T00:27:59;19.10;99.90
22185;DHT22;11258;52.516;13.318;2023-07-20T00:30:25;19.00;99.90
22185;DHT22;11258;52.516;13.318;2023-07-20T00:32:50;19.00;99.90
22185;DHT22;11258;52.516;13.318;2023-07-20T00:35:16;19.00;99.90
22185;DHT22;11258;52.516;13.318;2023-07-20T00:37:42;19.00;99.90
22185;DHT22;11258;52.516;13.318;2023-07-20T00:40:07;19.00;99.90
22185;DHT22;11258;52.516;13.318;2023-07-20T00:42:33;18.90;99.90
22185;DHT22;11258;52.516;13.318;2023-07-20T00:44:59;18.90;99.90
22185;DHT22;11258;52.516;13.318;2023-07-20T00:47:26;18.90;99.90
22185;DHT22;11258;52.516;13.318;2023-07-20T00:49:52;18.80;99.90
22185;DHT22;11258;52.516;13.318;2023-07-20T00:52:20;18.70;99.90
22185;DHT22;11258;52.516;13.318;2023-07-20T00:54:47;18.60;99.90
22185;DHT22;11258;52.516;13.318;2023-07-20T00:57:14;18.60;99.90
22185;DHT22;11258;52.516;13.318;2023-07-20T00:59:41;18.60;99.90
22185;DHT22;11258;52.516;13.318;2023-07-20T01:02:06;18.60;99.90
22185;DHT22;11258;52.516;13.318;2023-07-20T01:04:32;18.60;99.90
22185;DHT22;11258;52.516;13.318;2023-07-20T01:07:12;18.60;99.90
22185;DHT22;11258;52.516;13.318;2023-07-20T01:12:18;18.60;99.90
22185;DHT22;11258;52.516;13.318;2023-07-20T01:14:46;18.50;99.90
22185;DHT22;11258;52.516;13.318;2023-07-20T01:17:12;18.50;99.90
22185;DHT22;11258;52.516;13.318;2023-07-20T01:19:39;18.40;99.90
22185;DHT22;11258;52.516;13.318;2023-07-20T01:32:45;18.30;99.90
22185;DHT22;11258;52.516;13.318;2023-07-20T01:35:13;18.40;99.90
22185;DHT22;11258;52.516;13.318;2023-07-20T01:37:42;18.30;99.90
22185;DHT22;11258;52.516;13.318;2023-07-20T01:40:10;18.30;99.90
22185;DHT22;11258;52.516;13.318;2023-07-20T01:42:36;18.30;99.90
22185;DHT22;11258;52.516;13.318;2023-07-20T01:45:01;18.20;99.90
22185;DHT22;11258;52.516;13.318;2023-07-20T01:47:27;18.20;99.90
22185;DHT22;11258;52.516;13.318;2023-07-20T01:49:53;18.20;99.90
22185;DHT22;11258;52.516;13.318;2023-07-20T01:52:18;18.30;99.90
22185;DHT22;11258;52.516;13.318;2023-07-20T01:54:44;18.30;99.90
22185;DHT22;11258;52.516;13.318;2023-07-20T01:57:09;18.30;99.90
22185;DHT22;11258;52.516;13.318;2023-07-20T01:59:35;18.30;99.90
22185;DHT22;11258;52.516;13.318;2023-07-20T02:02:01;18.40;99.90
22185;DHT22;11258;52.516;13.318;2023-07-20T02:04:26;18.30;99.90
22185;DHT22;11258;52.516;13.318;2023-07-20T02:06:52;18.30;99.90
22185;DHT22;11258;52.516;13.318;2023-07-20T02:09:17;18.40;99.90
22185;DHT22;11258;52.516;13.318;2023-07-20T02:11:43;18.40;99.90
22185;DHT22;11258;52.516;13.318;2023-07-20T02:14:08;18.30;99.90
22185;DHT22;11258;52.516;13.318;2023-07-20T02:16:34;18.40;99.90
22185;DHT22;11258;52.516;13.318;2023-07-20T02:19:00;18.30;99.90
22185;DHT22;11258;52.516;13.318;2023-07-20T02:21:25;18.30;99.90
22185;DHT22;11258;52.516;13.318;2023-07-20T02:23:51;18.30;99.90
22185;DHT22;11258;52.516;13.318;2023-07-20T02:26:16;18.30;99.90
22185;DHT22;11258;52.516;13.318;2023-07-20T02:28:42;18.30;99.90
22185;DHT22;11258;52.516;13.318;2023-07-20T02:31:08;18.20;99.90
22185;DHT22;11258;52.516;13.318;2023-07-20T02:33:33;18.20;99.90
22185;DHT22;11258;52.516;13.318;2023-07-20T02:35:59;18.20;99.90
22185;DHT22;11258;52.516;13.318;2023-07-20T02:38:24;18.20;99.90
22185;DHT22;11258;52.516;13.318;2023-07-20T02:40:50;18.30;99.90
22185;DHT22;11258;52.516;13.318;2023-07-20T02:43:17;18.30;99.90
22185;DHT22;11258;52.516;13.318;2023-07-20T02:45:43;18.20;99.90
22185;DHT22;11258;52.516;13.318;2023-07-20T02:48:09;18.20;99.90
22185;DHT22;11258;52.516;13.318;2023-07-20T02:50:34;18.30;99.90
22185;DHT22;11258;52.516;13.318;2023-07-20T02:53:01;18.40;99.90
22185;DHT22;11258;52.516;13.318;2023-07-20T02:55:26;18.40;99.90
22185;DHT22;11258;52.516;13.318;2023-07-20T02:57:52;18.40;99.90
22185;DHT22;11258;52.516;13.318;2023-07-20T03:00:18;18.50;99.90
22185;DHT22;11258;52.516;13.318;2023-07-20T03:02:45;18.50;99.90
22185;DHT22;11258;52.516;13.318;2023-07-20T03:05:13;18.50;99.90
22185;DHT22;11258;52.516;13.318;2023-07-20T03:07:39;18.40;99.90
22185;DHT22;11258;52.516;13.318;2023-07-20T03:10:05;18.40;99.90
22185;DHT22;11258;52.516;13.318;2023-07-20T03:12:35;18.30;99.90
22185;DHT22;11258;52.516;13.318;2023-07-20T03:15:01;18.30;99.90
22185;DHT22;11258;52.516;13.318;2023-07-20T03:17:27;18.30;99.90
22185;DHT22;11258;52.516;13.318;2023-07-20T03:19:53;18.30;99.90
22185;DHT22;11258;52.516;13.318;2023-07-20T03:22:19;18.30;99.90
22185;DHT22;11258;52.516;13.318;2023-07-20T03:24:44;18.30;99.90
22185;DHT22;11258;52.516;13.318;2023-07-20T03:27:10;18.30;99.90
22185;DHT22;11258;52.516;13.318;2023-07-20T03:29:36;18.30;99.90
22185;DHT22;11258;52.516;13.318;2023-07-20T03:32:01;18.40;99.90
22185;DHT22;11258;52.516;13.318;2023-07-20T03:34:27;18.40;99.90
22185;DHT22;11258;52.516;13.318;2023-07-20T03:36:52;18.40;99.90
22185;DHT22;11258;52.516;13.318;2023-07-20T03:39:18;18.40;99.90
22185;DHT22;11258;52.516;13.318;2023-07-20T03:41:44;18.40;99.90
22185;DHT22;11258;52.516;13.318;2023-07-20T03:44:10;18.50;99.90
22185;DHT22;11258;52.516;13.318;2023-07-20T03:46:35;18.50;99.90
22185;DHT22;11258;52.516;13.318;2023-07-20T03:49:01;18.50;99.90
22185;DHT22;11258;52.516;13.318;2023-07-20T03:51:27;18.50;99.90
22185;DHT22;11258;52.516;13.318;2023-07-20T03:53:52;18.40;99.90
22185;DHT22;11258;52.516;13.318;2023-07-20T03:56:18;18.40;99.90
22185;DHT22;11258;52.516;13.318;2023-07-20T03:58:43;18.40;99.90
22185;DHT22;11258;52.516;13.318;2023-07-20T04:01:09;18.40;99.90
22185;DHT22;11258;52.516;13.318;2023-07-20T04:03:35;18.40;99.90
22185;DHT22;11258;52.516;13.318;2023-07-20T04:06:02;18.40;99.90
22185;DHT22;11258;52.516;13.318;2023-07-20T04:08:27;18.30;99.90
22185;DHT22;11258;52.516;13.318;2023-07-20T04:10:53;18.30;99.90
22185;DHT22;11258;52.516;13.318;2023-07-20T04:13:19;18.30;99.90
22185;DHT22;11258;52.516;13.318;2023-07-20T04:15:44;18.30;99.90
22185;DHT22;11258;52.516;13.318;2023-07-20T04:18:10;18.40;99.90
22185;DHT22;11258;52.516;13.318;2023-07-20T04:20:36;18.40;99.90
22185;DHT22;11258;52.516;13.318;2023-07-20T04:23:01;18.40;99.90
22185;DHT22;11258;52.516;13.318;2023-07-20T04:25:27;18.40;99.90
22185;DHT22;11258;52.516;13.318;2023-07-20T04:27:52;18.40;99.90
22185;DHT22;11258;52.516;13.318;2023-07-20T04:30:19;18.50;99.90
22185;DHT22;11258;52.516;13.318;2023-07-20T04:32:48;18.40;99.90
22185;DHT22;11258;52.516;13.318;2023-07-20T04:35:44;18.50;99.90
22185;DHT22;11258;52.516;13.318;2023-07-20T04:38:04;18.60;99.90
22185;DHT22;11258;52.516;13.318;2023-07-20T04:40:29;18.70;99.90
22185;DHT22;11258;52.516;13.318;2023-07-20T04:42:55;18.80;99.90
22185;DHT22;11258;52.516;13.318;2023-07-20T04:45:20;19.00;99.90
22185;DHT22;11258;52.516;13.318;2023-07-20T04:47:48;19.00;99.90
22185;DHT22;11258;52.516;13.318;2023-07-20T04:50:16;19.10;99.90
22185;DHT22;11258;52.516;13.318;2023-07-20T04:52:42;19.20;99.90
22185;DHT22;11258;52.516;13.318;2023-07-20T04:55:07;19.10;99.90
22185;DHT22;11258;52.516;13.318;2023-07-20T04:57:34;19.30;99.90
22185;DHT22;11258;52.516;13.318;2023-07-20T05:00:00;19.50;99.90
22185;DHT22;11258;52.516;13.318;2023-07-20T05:02:25;19.60;99.90
22185;DHT22;11258;52.516;13.318;2023-07-20T05:04:51;19.50;99.90
22185;DHT22;11258;52.516;13.318;2023-07-20T05:07:16;19.70;99.90
22185;DHT22;11258;52.516;13.318;2023-07-20T05:09:42;19.80;99.90
22185;DHT22;11258;52.516;13.318;2023-07-20T05:12:08;19.90;99.90
22185;DHT22;11258;52.516;13.318;2023-07-20T05:14:33;20.30;99.90
22185;DHT22;11258;52.516;13.318;2023-07-20T05:16:59;20.40;99.90
22185;DHT22;11258;52.516;13.318;2023-07-20T05:19:25;20.40;99.90
22185;DHT22;11258;52.516;13.318;2023-07-20T05:21:51;20.30;99.90
22185;DHT22;11258;52.516;13.318;2023-07-20T05:24:16;20.40;99.90
22185;DHT22;11258;52.516;13.318;2023-07-20T05:26:42;20.60;99.90
22185;DHT22;11258;52.516;13.318;2023-07-20T05:29:08;21.20;99.90
22185;DHT22;11258;52.516;13.318;2023-07-20T05:31:33;21.50;99.90
22185;DHT22;11258;52.516;13.318;2023-07-20T05:33:59;21.40;99.90
22185;DHT22;11258;52.516;13.318;2023-07-20T05:36:25;21.50;99.90
22185;DHT22;11258;52.516;13.318;2023-07-20T05:38:50;21.70;99.90
22185;DHT22;11258;52.516;13.318;2023-07-20T05:41:16;21.90;99.90
22185;DHT22;11258;52.516;13.318;2023-07-20T05:43:41;22.10;99.90
22185;DHT22;11258;52.516;13.318;2023-07-20T05:46:07;21.70;99.90
22185;DHT22;11258;52.516;13.318;2023-07-20T05:48:33;21.70;99.90
22185;DHT22;11258;52.516;13.318;2023-07-20T05:50:59;21.40;99.90
22185;DHT22;11258;52.516;13.318;2023-07-20T05:53:24;21.10;99.90
22185;DHT22;11258;52.516;13.318;2023-07-20T05:55:56;20.80;99.90
22185;DHT22;11258;52.516;13.318;2023-07-20T05:58:21;20.40;99.90
22185;DHT22;11258;52.516;13.318;2023-07-20T06:00:48;20.20;99.90
22185;DHT22;11258;52.516;13.318;2023-07-20T06:03:15;20.00;99.90
22185;DHT22;11258;52.516;13.318;2023-07-20T06:05:42;19.90;99.90
22185;DHT22;11258;52.516;13.318;2023-07-20T06:08:08;19.80;99.90
22185;DHT22;11258;52.516;13.318;2023-07-20T06:10:33;19.80;99.90
22185;DHT22;11258;52.516;13.318;2023-07-20T06:12:59;19.80;99.90
22185;DHT22;11258;52.516;13.318;2023-07-20T06:15:32;19.90;99.90
22185;DHT22;11258;52.516;13.318;2023-07-20T06:18:00;20.00;99.90
22185;DHT22;11258;52.516;13.318;2023-07-20T06:20:26;20.20;99.90
22185;DHT22;11258;52.516;13.318;2023-07-20T06:22:52;20.40;99.90
22185;DHT22;11258;52.516;13.318;2023-07-20T06:25:17;20.50;99.90
22185;DHT22;11258;52.516;13.318;2023-07-20T06:27:43;20.60;99.90
22185;DHT22;11258;52.516;13.318;2023-07-20T06:30:10;20.80;99.90
22185;DHT22;11258;52.516;13.318;2023-07-20T06:32:36;21.30;99.90
22185;DHT22;11258;52.516;13.318;2023-07-20T06:35:01;22.10;99.90
22185;DHT22;11258;52.516;13.318;2023-07-20T06:37:27;22.90;99.90
22185;DHT22;11258;52.516;13.318;2023-07-20T06:39:53;23.20;99.90
22185;DHT22;11258;52.516;13.318;2023-07-20T06:42:18;23.00;99.90
22185;DHT22;11258;52.516;13.318;2023-07-20T06:44:44;22.60;99.90
22185;DHT22;11258;52.516;13.318;2023-07-20T06:47:10;22.10;99.90
22185;DHT22;11258;52.516;13.318;2023-07-20T06:49:36;21.70;99.90
22185;DHT22;11258;52.516;13.318;2023-07-20T06:52:02;21.70;99.90
22185;DHT22;11258;52.516;13.318;2023-07-20T06:54:27;23.50;99.90
22185;DHT22;11258;52.516;13.318;2023-07-20T06:56:53;25.80;99.90
22185;DHT22;11258;52.516;13.318;2023-07-20T06:59:18;27.50;99.90
22185;DHT22;11258;52.516;13.318;2023-07-20T07:01:44;29.00;99.90
22185;DHT22;11258;52.516;13.318;2023-07-20T07:04:10;28.70;99.90
22185;DHT22;11258;52.516;13.318;2023-07-20T07:06:36;29.80;99.90
22185;DHT22;11258;52.516;13.318;2023-07-20T07:09:02;28.90;99.90
22185;DHT22;11258;52.516;13.318;2023-07-20T07:11:29;29.10;99.90
22185;DHT22;11258;52.516;13.318;2023-07-20T07:13:54;29.90;99.90
22185;DHT22;11258;52.516;13.318;2023-07-20T07:16:20;30.30;99.90
22185;DHT22;11258;52.516;13.318;2023-07-20T07:18:46;30.90;99.90
22185;DHT22;11258;52.516;13.318;2023-07-20T07:21:12;31.50;99.90
22185;DHT22;11258;52.516;13.318;2023-07-20T07:23:40;31.30;99.90
22185;DHT22;11258;52.516;13.318;2023-07-20T07:26:06;31.20;99.90
22185;DHT22;11258;52.516;13.318;2023-07-20T07:28:31;30.30;99.90
22185;DHT22;11258;52.516;13.318;2023-07-20T07:30:57;29.50;99.90
22185;DHT22;11258;52.516;13.318;2023-07-20T07:33:23;28.70;99.90
22185;DHT22;11258;52.516;13.318;2023-07-20T07:35:53;28.80;99.90
22185;DHT22;11258;52.516;13.318;2023-07-20T07:38:19;28.50;99.90
22185;DHT22;11258;52.516;13.318;2023-07-20T07:40:45;28.20;99.90
22185;DHT22;11258;52.516;13.318;2023-07-20T07:43:11;27.90;99.90
22185;DHT22;11258;52.516;13.318;2023-07-20T07:45:38;28.70;99.90
22185;DHT22;11258;52.516;13.318;2023-07-20T07:48:05;29.10;99.90
22185;DHT22;11258;52.516;13.318;2023-07-20T07:50:31;29.40;99.90
22185;DHT22;11258;52.516;13.318;2023-07-20T07:52:57;29.80;99.90
22185;DHT22;11258;52.516;13.318;2023-07-20T07:55:23;29.90;99.90
22185;DHT22;11258;52.516;13.318;2023-07-20T07:57:49;29.60;99.90
22185;DHT22;11258;52.516;13.318;2023-07-20T08:00:15;29.30;99.90
22185;DHT22;11258;52.516;13.318;2023-07-20T08:02:44;29.10;99.90
22185;DHT22;11258;52.516;13.318;2023-07-20T08:05:11;28.60;99.90
22185;DHT22;11258;52.516;13.318;2023-07-20T08:07:36;28.10;99.90
22185;DHT22;11258;52.516;13.318;2023-07-20T08:10:03;27.20;99.90
22185;DHT22;11258;52.516;13.318;2023-07-20T08:12:29;26.00;99.90
22185;DHT22;11258;52.516;13.318;2023-07-20T08:14:54;25.30;99.90
22185;DHT22;11258;52.516;13.318;2023-07-20T08:17:20;24.90;99.90
22185;DHT22;11258;52.516;13.318;2023-07-20T08:19:46;24.70;99.90
22185;DHT22;11258;52.516;13.318;2023-07-20T08:22:12;24.60;99.90
22185;DHT22;11258;52.516;13.318;2023-07-20T08:24:41;24.50;99.90
22185;DHT22;11258;52.516;13.318;2023-07-20T08:27:07;24.40;99.90
22185;DHT22;11258;52.516;13.318;2023-07-20T08:29:34;24.70;99.90
22185;DHT22;11258;52.516;13.318;2023-07-20T08:32:00;25.40;99.90
22185;DHT22;11258;52.516;13.318;2023-07-20T08:34:25;25.00;99.90
22185;DHT22;11258;52.516;13.318;2023-07-20T08:36:51;24.90;99.90
22185;DHT22;11258;52.516;13.318;2023-07-20T08:39:16;24.90;99.90
22185;DHT22;11258;52.516;13.318;2023-07-20T08:41:46;25.50;99.90
22185;DHT22;11258;52.516;13.318;2023-07-20T08:44:12;26.10;99.90
22185;DHT22;11258;52.516;13.318;2023-07-20T08:46:38;27.00;99.90
22185;DHT22;11258;52.516;13.318;2023-07-20T08:49:06;27.30;99.90
22185;DHT22;11258;52.516;13.318;2023-07-20T08:51:32;28.00;99.90
22185;DHT22;11258;52.516;13.318;2023-07-20T08:53:59;29.10;99.90
22185;DHT22;11258;52.516;13.318;2023-07-20T08:56:26;28.80;99.90
22185;DHT22;11258;52.516;13.318;2023-07-20T08:58:54;28.30;99.90
22185;DHT22;11258;52.516;13.318;2023-07-20T09:01:20;28.30;99.90
22185;DHT22;11258;52.516;13.318;2023-07-20T09:03:47;28.90;99.90
22185;DHT22;11258;52.516;13.318;2023-07-20T09:06:13;29.20;99.90
22185;DHT22;11258;52.516;13.318;2023-07-20T09:08:40;28.60;99.90
22185;DHT22;11258;52.516;13.318;2023-07-20T09:11:06;28.00;99.90
22185;DHT22;11258;52.516;13.318;2023-07-20T09:13:35;27.70;99.90
22185;DHT22;11258;52.516;13.318;2023-07-20T09:16:01;27.60;99.90
22185;DHT22;11258;52.516;13.318;2023-07-20T09:18:31;28.40;99.90
22185;DHT22;11258;52.516;13.318;2023-07-20T09:21:04;28.70;99.90
22185;DHT22;11258;52.516;13.318;2023-07-20T09:23:34;29.40;99.90
22185;DHT22;11258;52.516;13.318;2023-07-20T09:26:04;29.10;99.90
22185;DHT22;11258;52.516;13.318;2023-07-20T09:28:42;28.90;99.90
22185;DHT22;11258;52.516;13.318;2023-07-20T09:31:19;28.30;99.90
22185;DHT22;11258;52.516;13.318;2023-07-20T09:33:46;27.70;99.90
22185;DHT22;11258;52.516;13.318;2023-07-20T09:36:12;26.80;99.90
22185;DHT22;11258;52.516;13.318;2023-07-20T09:38:39;25.90;99.90
22185;DHT22;11258;52.516;13.318;2023-07-20T09:41:05;25.50;99.90
22185;DHT22;11258;52.516;13.318;2023-07-20T09:43:34;24.80;99.90
22185;DHT22;11258;52.516;13.318;2023-07-20T09:46:00;24.20;99.90
22185;DHT22;11258;52.516;13.318;2023-07-20T09:48:26;23.80;99.90
22185;DHT22;11258;52.516;13.318;2023-07-20T09:50:52;23.40;99.90
22185;DHT22;11258;52.516;13.318;2023-07-20T09:53:19;23.10;99.90
22185;DHT22;11258;52.516;13.318;2023-07-20T09:55:46;22.70;99.90
22185;DHT22;11258;52.516;13.318;2023-07-20T09:58:13;22.40;99.90
22185;DHT22;11258;52.516;13.318;2023-07-20T10:00:41;22.30;99.90
22185;DHT22;11258;52.516;13.318;2023-07-20T10:03:11;22.10;99.90
22185;DHT22;11258;52.516;13.318;2023-07-20T10:05:40;22.10;99.90
22185;DHT22;11258;52.516;13.318;2023-07-20T10:08:11;22.20;99.90
22185;DHT22;11258;52.516;13.318;2023-07-20T10:10:40;22.30;99.90
22185;DHT22;11258;52.516;13.318;2023-07-20T10:13:10;22.40;99.90
22185;DHT22;11258;52.516;13.318;2023-07-20T10:15:50;22.50;99.90
22185;DHT22;11258;52.516;13.318;2023-07-20T10:18:32;22.70;99.90
22185;DHT22;11258;52.516;13.318;2023-07-20T10:21:00;22.80;99.90
22185;DHT22;11258;52.516;13.318;2023-07-20T10:23:29;22.90;99.90
22185;DHT22;11258;52.516;13.318;2023-07-20T10:25:55;22.80;99.90
22185;DHT22;11258;52.516;13.318;2023-07-20T10:28:21;22.70;99.90
22185;DHT22;11258;52.516;13.318;2023-07-20T10:30:49;22.70;99.90
22185;DHT22;11258;52.516;13.318;2023-07-20T10:33:17;22.70;99.90
22185;DHT22;11258;52.516;13.318;2023-07-20T10:35:54;22.80;99.90
22185;DHT22;11258;52.516;13.318;2023-07-20T10:38:33;22.80;99.90
22185;DHT22;11258;52.516;13.318;2023-07-20T10:41:03;22.80;99.90
22185;DHT22;11258;52.516;13.318;2023-07-20T10:43:28;22.70;99.90
22185;DHT22;11258;52.516;13.318;2023-07-20T10:45:55;22.70;99.90
22185;DHT22;11258;52.516;13.318;2023-07-20T10:48:25;22.70;99.90
22185;DHT22;11258;52.516;13.318;2023-07-20T10:51:13;22.50;99.90
22185;DHT22;11258;52.516;13.318;2023-07-20T10:53:42;22.70;99.90
22185;DHT22;11258;52.516;13.318;2023-07-20T10:56:14;22.70;99.90
22185;DHT22;11258;52.516;13.318;2023-07-20T10:58:41;23.00;99.90
22185;DHT22;11258;52.516;13.318;2023-07-20T11:01:08;23.20;99.90
22185;DHT22;11258;52.516;13.318;2023-07-20T11:03:36;23.10;99.90
22185;DHT22;11258;52.516;13.318;2023-07-20T11:06:36;23.50;99.90
22185;DHT22;11258;52.516;13.318;2023-07-20T11:11:32;23.50;99.90
22185;DHT22;11258;52.516;13.318;2023-07-20T11:14:00;23.40;99.90
22185;DHT22;11258;52.516;13.318;2023-07-20T11:19:03;23.10;99.90
22185;DHT22;11258;52.516;13.318;2023-07-20T11:21:30;23.10;99.90
22185;DHT22;11258;52.516;13.318;2023-07-20T11:24:03;23.20;99.90
22185;DHT22;11258;52.516;13.318;2023-07-20T11:26:28;23.40;99.90
22185;DHT22;11258;52.516;13.318;2023-07-20T11:28:54;23.70;99.90
22185;DHT22;11258;52.516;13.318;2023-07-20T11:31:20;24.10;99.90
22185;DHT22;11258;52.516;13.318;2023-07-20T11:33:46;24.10;99.90
22185;DHT22;11258;52.516;13.318;2023-07-20T11:36:12;24.30;99.90
22185;DHT22;11258;52.516;13.318;2023-07-20T11:38:41;24.40;99.90
22185;DHT22;11258;52.516;13.318;2023-07-20T11:41:08;24.50;99.90
22185;DHT22;11258;52.516;13.318;2023-07-20T11:43:34;24.50;99.90
22185;DHT22;11258;52.516;13.318;2023-07-20T11:45:59;24.40;99.90
22185;DHT22;11258;52.516;13.318;2023-07-20T11:48:26;24.30;99.90
22185;DHT22;11258;52.516;13.318;2023-07-20T11:50:51;24.60;99.90
22185;DHT22;11258;52.516;13.318;2023-07-20T11:53:17;24.70;99.90
22185;DHT22;11258;52.516;13.318;2023-07-20T11:55:44;24.40;99.90
22185;DHT22;11258;52.516;13.318;2023-07-20T11:58:10;23.90;99.90
22185;DHT22;11258;52.516;13.318;2023-07-20T12:00:38;23.60;99.90
22185;DHT22;11258;52.516;13.318;2023-07-20T12:03:06;23.30;99.90
22185;DHT22;11258;52.516;13.318;2023-07-20T12:05:38;23.20;99.90
22185;DHT22;11258;52.516;13.318;2023-07-20T12:08:04;23.10;99.90
22185;DHT22;11258;52.516;13.318;2023-07-20T12:10:30;23.00;99.90
22185;DHT22;11258;52.516;13.318;2023-07-20T12:13:01;23.00;99.90
22185;DHT22;11258;52.516;13.318;2023-07-20T12:15:29;22.90;99.90
22185;DHT22;11258;52.516;13.318;2023-07-20T12:18:01;23.00;99.90
22185;DHT22;11258;52.516;13.318;2023-07-20T12:20:34;23.00;99.90
22185;DHT22;11258;52.516;13.318;2023-07-20T12:23:03;23.20;99.90
22185;DHT22;11258;52.516;13.318;2023-07-20T12:25:48;23.30;99.90
22185;DHT22;11258;52.516;13.318;2023-07-20T12:28:16;23.70;99.90
22185;DHT22;11258;52.516;13.318;2023-07-20T12:30:43;23.50;99.90
22185;DHT22;11258;52.516;13.318;2023-07-20T12:33:12;23.30;99.90
22185;DHT22;11258;52.516;13.318;2023-07-20T12:35:41;23.20;99.90
22185;DHT22;11258;52.516;13.318;2023-07-20T12:38:08;23.50;99.90
22185;DHT22;11258;52.516;13.318;2023-07-20T12:40:34;23.70;99.90
22185;DHT22;11258;52.516;13.318;2023-07-20T12:43:01;23.70;99.90
22185;DHT22;11258;52.516;13.318;2023-07-20T12:45:27;23.80;99.90
22185;DHT22;11258;52.516;13.318;2023-07-20T12:47:53;23.70;99.90
22185;DHT22;11258;52.516;13.318;2023-07-20T12:50:18;23.70;99.90
22185;DHT22;11258;52.516;13.318;2023-07-20T12:52:44;23.70;99.90
22185;DHT22;11258;52.516;13.318;2023-07-20T12:55:10;23.40;99.90
22185;DHT22;11258;52.516;13.318;2023-07-20T12:57:36;23.40;99.90
22185;DHT22;11258;52.516;13.318;2023-07-20T13:00:03;23.50;99.90
22185;DHT22;11258;52.516;13.318;2023-07-20T13:02:31;23.30;99.90
22185;DHT22;11258;52.516;13.318;2023-07-20T13:04:57;23.20;99.90
22185;DHT22;11258;52.516;13.318;2023-07-20T13:07:34;23.20;99.90
22185;DHT22;11258;52.516;13.318;2023-07-20T13:10:01;23.20;99.90
22185;DHT22;11258;52.516;13.318;2023-07-20T13:12:28;22.90;99.90
22185;DHT22;11258;52.516;13.318;2023-07-20T13:14:54;22.80;99.90
22185;DHT22;11258;52.516;13.318;2023-07-20T13:17:21;22.80;99.90
22185;DHT22;11258;52.516;13.318;2023-07-20T13:19:47;22.80;99.90
22185;DHT22;11258;52.516;13.318;2023-07-20T13:22:12;22.80;99.90
22185;DHT22;11258;52.516;13.318;2023-07-20T13:24:40;22.90;99.90
22185;DHT22;11258;52.516;13.318;2023-07-20T13:27:06;23.00;99.90
22185;DHT22;11258;52.516;13.318;2023-07-20T13:29:31;23.00;99.90
22185;DHT22;11258;52.516;13.318;2023-07-20T13:31:58;23.10;99.90
22185;DHT22;11258;52.516;13.318;2023-07-20T13:34:25;23.10;99.90
22185;DHT22;11258;52.516;13.318;2023-07-20T13:36:50;23.10;99.90
22185;DHT22;11258;52.516;13.318;2023-07-20T13:39:16;23.10;99.90
22185;DHT22;11258;52.516;13.318;2023-07-20T13:41:42;23.20;99.90
22185;DHT22;11258;52.516;13.318;2023-07-20T13:44:08;23.20;99.90
22185;DHT22;11258;52.516;13.318;2023-07-20T13:46:33;23.30;99.90
22185;DHT22;11258;52.516;13.318;2023-07-20T13:49:00;23.30;99.90
22185;DHT22;11258;52.516;13.318;2023-07-20T13:51:25;23.40;99.90
22185;DHT22;11258;52.516;13.318;2023-07-20T13:53:51;23.40;99.90
22185;DHT22;11258;52.516;13.318;2023-07-20T13:56:17;23.40;99.90
22185;DHT22;11258;52.516;13.318;2023-07-20T13:58:43;23.50;99.90
22185;DHT22;11258;52.516;13.318;2023-07-20T14:01:08;23.50;99.90
22185;DHT22;11258;52.516;13.318;2023-07-20T14:03:34;23.60;99.90
22185;DHT22;11258;52.516;13.318;2023-07-20T14:06:00;23.60;99.90
22185;DHT22;11258;52.516;13.318;2023-07-20T14:08:25;23.70;99.90
22185;DHT22;11258;52.516;13.318;2023-07-20T14:10:51;23.70;99.90
22185;DHT22;11258;52.516;13.318;2023-07-20T14:13:16;23.70;99.90
22185;DHT22;11258;52.516;13.318;2023-07-20T14:15:42;23.70;99.90
22185;DHT22;11258;52.516;13.318;2023-07-20T14:18:08;23.70;99.90
22185;DHT22;11258;52.516;13.318;2023-07-20T14:20:33;23.70;99.90
22185;DHT22;11258;52.516;13.318;2023-07-20T14:22:59;23.70;99.90
22185;DHT22;11258;52.516;13.318;2023-07-20T14:25:25;23.70;99.90
22185;DHT22;11258;52.516;13.318;2023-07-20T14:27:50;23.60;99.90
22185;DHT22;11258;52.516;13.318;2023-07-20T14:30:16;23.70;99.90
22185;DHT22;11258;52.516;13.318;2023-07-20T14:32:41;23.80;99.90
22185;DHT22;11258;52.516;13.318;2023-07-20T14:35:07;23.70;99.90
22185;DHT22;11258;52.516;13.318;2023-07-20T14:37:34;23.70;99.90
22185;DHT22;11258;52.516;13.318;2023-07-20T14:40:00;23.70;99.90
22185;DHT22;11258;52.516;13.318;2023-07-20T14:42:26;23.80;99.90
22185;DHT22;11258;52.516;13.318;2023-07-20T14:44:51;23.90;99.90
22185;DHT22;11258;52.516;13.318;2023-07-20T14:47:17;23.90;99.90
22185;DHT22;11258;52.516;13.318;2023-07-20T14:49:44;23.80;99.90
22185;DHT22;11258;52.516;13.318;2023-07-20T14:52:10;23.80;99.90
22185;DHT22;11258;52.516;13.318;2023-07-20T14:54:35;23.70;99.90
22185;DHT22;11258;52.516;13.318;2023-07-20T14:57:01;23.70;99.90
22185;DHT22;11258;52.516;13.318;2023-07-20T14:59:28;23.70;99.90
22185;DHT22;11258;52.516;13.318;2023-07-20T15:01:53;23.60;99.90
22185;DHT22;11258;52.516;13.318;2023-07-20T15:04:19;23.50;99.90
22185;DHT22;11258;52.516;13.318;2023-07-20T15:06:45;23.50;99.90
22185;DHT22;11258;52.516;13.318;2023-07-20T15:09:10;23.30;99.90
22185;DHT22;11258;52.516;13.318;2023-07-20T15:11:36;23.20;99.90
22185;DHT22;11258;52.516;13.318;2023-07-20T15:14:02;23.20;99.90
22185;DHT22;11258;52.516;13.318;2023-07-20T15:16:28;23.30;99.90
22185;DHT22;11258;52.516;13.318;2023-07-20T15:18:53;23.40;99.90
22185;DHT22;11258;52.516;13.318;2023-07-20T15:21:19;23.50;99.90
22185;DHT22;11258;52.516;13.318;2023-07-20T15:23:44;23.50;99.90
22185;DHT22;11258;52.516;13.318;2023-07-20T15:26:10;23.50;99.90
22185;DHT22;11258;52.516;13.318;2023-07-20T15:28:39;23.60;99.90
22185;DHT22;11258;52.516;13.318;2023-07-20T15:31:06;23.70;99.90